createdAt,value
2023-05-15T00:00:57.445Z,7.70
2023-05-15T00:03:25.989Z,7.70
2023-05-15T00:05:53.760Z,7.70
2023-05-15T00:08:21.276Z,7.70
2023-05-15T00:11:00.817Z,7.80
2023-05-15T00:13:29.979Z,7.70
2023-05-15T00:15:57.593Z,7.70
2023-05-15T00:18:25.378Z,7.70
2023-05-15T00:20:53.335Z,7.60
2023-05-15T00:23:20.468Z,7.70
2023-05-15T00:25:47.818Z,7.60
2023-05-15T00:28:14.979Z,7.70
2023-05-15T00:30:42.360Z,7.70
2023-05-15T00:33:09.887Z,7.60
2023-05-15T00:35:38.056Z,7.50
2023-05-15T00:38:05.291Z,7.50
2023-05-15T00:40:34.122Z,7.60
2023-05-15T00:43:02.501Z,7.50
2023-05-15T00:45:30.799Z,7.50
2023-05-15T00:47:59.051Z,7.40
2023-05-15T00:50:26.804Z,7.40
2023-05-15T00:52:55.324Z,7.30
2023-05-15T00:55:23.331Z,7.30
2023-05-15T00:57:52.569Z,7.20
2023-05-15T01:00:20.986Z,7.20
2023-05-15T01:02:48.388Z,7.20
2023-05-15T01:05:16.085Z,7.10
2023-05-15T01:08:06.684Z,7.10
2023-05-15T01:10:35.689Z,7.10
2023-05-15T01:13:04.672Z,7.00
2023-05-15T01:15:34.425Z,7.00
2023-05-15T01:18:01.801Z,6.90
2023-05-15T01:20:32.814Z,6.90
2023-05-15T01:23:11.167Z,6.90
2023-05-15T01:26:07.734Z,6.80
2023-05-15T01:28:43.301Z,6.80
2023-05-15T01:31:19.547Z,6.80
2023-05-15T01:33:53.169Z,6.80
2023-05-15T01:36:35.768Z,6.80
2023-05-15T01:39:05.362Z,6.80
2023-05-15T01:41:41.387Z,6.80
2023-05-15T01:44:17.146Z,6.80
2023-05-15T01:46:48.584Z,6.70
2023-05-15T01:49:19.151Z,6.70
2023-05-15T01:51:50.846Z,6.70
2023-05-15T01:54:19.518Z,6.70
2023-05-15T01:56:48.262Z,6.70
2023-05-15T01:59:17.750Z,6.60
2023-05-15T02:01:46.674Z,6.60
2023-05-15T02:04:15.571Z,6.60
2023-05-15T02:06:43.856Z,6.60
2023-05-15T02:09:11.104Z,6.70
2023-05-15T02:11:38.882Z,6.60
2023-05-15T02:14:32.050Z,6.60
2023-05-15T02:16:59.273Z,6.50
2023-05-15T02:19:27.605Z,6.40
2023-05-15T02:21:54.992Z,6.40
2023-05-15T02:24:22.216Z,6.40
2023-05-15T02:27:08.320Z,6.40
2023-05-15T02:29:54.625Z,6.40
2023-05-15T02:32:50.600Z,6.40
2023-05-15T02:35:33.760Z,6.30
2023-05-15T02:38:07.764Z,6.40
2023-05-15T02:40:37.536Z,6.50
2023-05-15T02:43:08.293Z,6.50
2023-05-15T02:45:36.641Z,6.30
2023-05-15T02:48:04.684Z,6.30
2023-05-15T02:50:32.030Z,6.20
2023-05-15T02:53:04.728Z,6.10
2023-05-15T02:55:31.947Z,6.20
2023-05-15T02:57:59.372Z,6.20
2023-05-15T03:00:26.606Z,6.20
2023-05-15T03:02:53.958Z,6.20
2023-05-15T03:05:21.323Z,6.10
2023-05-15T03:07:48.562Z,6.10
2023-05-15T03:10:15.847Z,6.10
2023-05-15T03:12:43.490Z,6.10
2023-05-15T03:15:11.339Z,6.10
2023-05-15T03:17:38.500Z,6.00
2023-05-15T03:20:06.405Z,6.10
2023-05-15T03:22:33.646Z,6.10
2023-05-15T03:25:01.845Z,6.20
2023-05-15T03:27:29.634Z,6.10
2023-05-15T03:29:57.152Z,6.10
2023-05-15T03:32:24.336Z,6.20
2023-05-15T03:34:51.525Z,6.10
2023-05-15T03:37:19.396Z,6.10
2023-05-15T03:39:46.576Z,6.10
2023-05-15T03:42:14.447Z,6.10
2023-05-15T03:44:41.752Z,6.20
2023-05-15T03:47:10.365Z,6.10
2023-05-15T03:49:38.745Z,6.10
2023-05-15T03:52:07.003Z,6.10
2023-05-15T03:54:34.906Z,6.10
2023-05-15T03:57:04.179Z,6.20
2023-05-15T03:59:31.491Z,6.30
2023-05-15T04:02:04.903Z,6.30
2023-05-15T04:04:32.996Z,6.40
2023-05-15T04:07:00.774Z,6.40
2023-05-15T04:09:28.086Z,6.40
2023-05-15T04:11:55.290Z,6.50
2023-05-15T04:14:22.501Z,6.50
2023-05-15T04:16:49.770Z,6.60
2023-05-15T04:19:17.435Z,6.70
2023-05-15T04:21:45.111Z,6.80
2023-05-15T04:24:12.464Z,7.00
2023-05-15T04:26:39.743Z,7.10
2023-05-15T04:29:07.335Z,7.20
2023-05-15T04:31:35.026Z,7.20
2023-05-15T04:34:03.860Z,7.30
2023-05-15T04:36:31.707Z,7.30
2023-05-15T04:38:59.052Z,7.40
2023-05-15T04:41:26.988Z,7.50
2023-05-15T04:43:54.327Z,7.60
2023-05-15T04:46:21.656Z,7.70
2023-05-15T04:48:49.399Z,7.80
2023-05-15T04:51:16.618Z,7.90
2023-05-15T04:53:44.197Z,8.00
2023-05-15T04:56:12.076Z,8.10
2023-05-15T04:58:39.244Z,8.20
2023-05-15T05:01:06.437Z,8.30
2023-05-15T05:03:33.926Z,8.40
2023-05-15T05:06:01.361Z,8.50
2023-05-15T05:08:29.111Z,8.60
2023-05-15T05:10:57.457Z,8.80
2023-05-15T05:13:24.655Z,8.90
2023-05-15T05:15:51.890Z,9.00
2023-05-15T05:18:19.452Z,9.10
2023-05-15T05:20:47.215Z,9.20
2023-05-15T05:23:15.037Z,9.40
2023-05-15T05:25:42.255Z,9.40
2023-05-15T05:28:09.448Z,9.50
2023-05-15T05:30:36.941Z,9.60
2023-05-15T05:33:04.259Z,9.80
2023-05-15T05:35:31.554Z,9.90
2023-05-15T05:37:59.084Z,9.90
2023-05-15T05:40:26.423Z,10.00
2023-05-15T05:42:53.928Z,10.20
2023-05-15T05:45:21.189Z,10.20
2023-05-15T05:47:48.472Z,10.30
2023-05-15T05:50:15.838Z,10.50
2023-05-15T05:52:47.358Z,10.50
2023-05-15T05:55:14.652Z,10.60
2023-05-15T05:57:42.630Z,10.70
2023-05-15T06:00:11.262Z,10.80
2023-05-15T06:02:40.504Z,11.00
2023-05-15T06:05:08.467Z,11.10
2023-05-15T06:07:35.847Z,11.20
2023-05-15T06:10:04.432Z,11.40
2023-05-15T06:12:31.877Z,11.50
2023-05-15T06:14:59.068Z,11.70
2023-05-15T06:17:26.262Z,12.00
2023-05-15T06:19:54.123Z,12.20
2023-05-15T06:22:21.979Z,12.40
2023-05-15T06:24:49.213Z,12.60
2023-05-15T06:27:16.402Z,13.00
2023-05-15T06:29:43.579Z,13.40
2023-05-15T06:32:10.837Z,14.00
2023-05-15T06:34:38.061Z,14.80
2023-05-15T06:37:05.245Z,15.60
2023-05-15T06:39:32.907Z,15.30
2023-05-15T06:42:01.363Z,15.40
2023-05-15T06:44:31.204Z,16.90
2023-05-15T06:46:59.700Z,18.30
2023-05-15T06:49:27.723Z,20.20
2023-05-15T06:51:56.023Z,22.00
2023-05-15T06:54:23.243Z,23.30
2023-05-15T06:56:50.644Z,24.10
2023-05-15T06:59:18.178Z,24.90
2023-05-15T07:01:45.522Z,25.50
2023-05-15T07:04:15.760Z,26.10
2023-05-15T07:06:43.658Z,26.60
2023-05-15T07:09:10.826Z,27.10
2023-05-15T07:11:38.814Z,27.60
2023-05-15T07:14:07.320Z,28.00
2023-05-15T07:16:34.493Z,28.60
2023-05-15T07:19:01.843Z,28.90
2023-05-15T07:21:29.059Z,29.20
2023-05-15T07:23:56.938Z,29.50
2023-05-15T07:26:32.823Z,29.80
2023-05-15T07:29:04.126Z,30.10
2023-05-15T07:31:33.517Z,30.60
2023-05-15T07:34:01.003Z,31.30
2023-05-15T07:36:28.226Z,31.60
2023-05-15T07:38:55.517Z,32.00
2023-05-15T07:41:23.217Z,32.40
2023-05-15T07:43:50.392Z,32.70
2023-05-15T07:46:17.988Z,33.10
2023-05-15T07:48:45.257Z,33.40
2023-05-15T07:51:12.399Z,33.60
2023-05-15T07:53:39.650Z,33.80
2023-05-15T07:56:06.941Z,33.80
2023-05-15T07:58:38.164Z,33.50
2023-05-15T08:01:05.930Z,33.60
2023-05-15T08:03:33.898Z,33.70
2023-05-15T08:06:01.494Z,33.90
2023-05-15T08:08:28.690Z,33.90
2023-05-15T08:10:56.113Z,34.20
2023-05-15T08:13:23.285Z,34.20
2023-05-15T08:15:50.561Z,34.40
2023-05-15T08:18:17.777Z,34.80
2023-05-15T08:20:45.838Z,35.10
2023-05-15T08:37:58.885Z,35.40
2023-05-15T08:40:38.515Z,37.00
2023-05-15T08:43:16.224Z,36.90
2023-05-15T08:45:43.897Z,37.40
2023-05-15T08:55:40.809Z,37.30
2023-05-15T08:58:10.194Z,38.80
2023-05-15T09:00:37.883Z,38.70
2023-05-15T09:03:05.359Z,38.80
2023-05-15T09:05:33.340Z,38.40
2023-05-15T09:08:04.027Z,39.10
2023-05-15T09:10:32.739Z,39.90
2023-05-15T09:22:55.962Z,40.20
2023-05-15T09:25:39.619Z,39.90
2023-05-15T09:28:08.990Z,39.70
2023-05-15T09:48:06.987Z,40.00
2023-05-15T09:50:37.302Z,41.50
2023-05-15T09:53:05.290Z,40.90
2023-05-15T09:55:34.690Z,41.50
2023-05-15T10:10:39.198Z,42.00
2023-05-15T10:13:09.841Z,44.40
2023-05-15T10:15:38.704Z,44.10
2023-05-15T10:18:07.503Z,43.80
2023-05-15T10:20:35.935Z,43.50
2023-05-15T10:23:06.618Z,42.90
2023-05-15T10:25:57.880Z,42.80
2023-05-15T10:28:26.948Z,43.00
2023-05-15T10:30:55.815Z,43.30
2023-05-15T10:33:23.748Z,42.60
2023-05-15T10:35:52.613Z,42.80
2023-05-15T10:38:20.954Z,43.40
2023-05-15T10:40:48.552Z,43.20
2023-05-15T10:43:15.986Z,44.00
2023-05-15T10:45:43.962Z,44.30
2023-05-15T10:48:12.365Z,44.60
2023-05-15T10:50:40.879Z,44.20
2023-05-15T10:53:09.956Z,44.20
2023-05-15T10:55:38.366Z,44.70
2023-05-15T10:58:10.078Z,44.20
2023-05-15T11:00:45.080Z,44.30
2023-05-15T11:03:16.862Z,44.80
2023-05-15T11:06:06.850Z,44.60
2023-05-15T11:08:34.613Z,44.40
2023-05-15T11:11:01.963Z,44.50
2023-05-15T11:14:04.820Z,44.90
2023-05-15T11:17:00.547Z,45.00
2023-05-15T11:19:34.712Z,45.30
2023-05-15T11:22:15.733Z,44.40
2023-05-15T11:25:01.025Z,44.80
2023-05-15T11:55:44.116Z,46.70
2023-05-15T11:58:13.615Z,48.30
2023-05-15T12:00:42.701Z,48.40
2023-05-15T12:11:04.639Z,48.00
2023-05-15T12:16:03.299Z,45.60
2023-05-15T12:18:32.264Z,44.60
2023-05-15T12:23:28.929Z,45.10
2023-05-15T12:26:01.079Z,47.80
2023-05-15T12:28:30.116Z,47.90
2023-05-15T12:30:58.380Z,48.20
2023-05-15T12:33:28.940Z,48.00
2023-05-15T12:36:01.743Z,46.80
2023-05-15T12:38:30.449Z,47.00
2023-05-15T12:40:58.333Z,48.00
2023-05-15T12:43:26.157Z,48.20
2023-05-15T12:45:54.982Z,45.10
2023-05-15T12:48:22.349Z,42.90
2023-05-15T12:50:50.110Z,42.60
2023-05-15T12:53:17.865Z,44.50
2023-05-15T12:55:46.343Z,44.90
2023-05-15T13:00:46.670Z,44.50
2023-05-15T13:03:14.574Z,42.70
2023-05-15T13:05:46.103Z,43.00
2023-05-15T13:08:18.172Z,43.30
2023-05-15T13:10:46.658Z,44.50
2023-05-15T13:13:15.048Z,43.60
2023-05-15T13:25:40.492Z,42.00
2023-05-15T13:28:10.504Z,42.70
2023-05-15T13:40:56.558Z,41.80
2023-05-15T13:58:13.917Z,34.00
2023-05-15T14:15:32.687Z,32.00
2023-05-15T14:18:02.076Z,33.70
2023-05-15T14:20:29.514Z,33.40
2023-05-15T15:42:39.134Z,33.20
2023-05-15T15:45:06.779Z,22.30
2023-05-15T15:47:34.644Z,21.50
2023-05-15T15:54:57.273Z,21.20
2023-05-15T15:57:24.539Z,20.50
2023-05-15T15:59:52.235Z,20.50
2023-05-15T16:02:20.832Z,20.70
2023-05-15T16:04:48.056Z,20.60
2023-05-15T16:07:15.982Z,20.30
2023-05-15T16:09:43.132Z,19.90
2023-05-15T16:12:10.291Z,19.70
2023-05-15T16:14:39.101Z,19.80
2023-05-15T16:17:06.316Z,19.70
2023-05-15T16:19:59.596Z,19.30
2023-05-15T16:22:30.164Z,19.10
2023-05-15T16:24:58.174Z,19.00
2023-05-15T16:27:25.314Z,18.80
2023-05-15T16:29:52.981Z,18.60
2023-05-15T16:32:21.151Z,18.30
2023-05-15T16:34:48.515Z,18.10
2023-05-15T16:44:38.755Z,18.00
2023-05-15T16:47:05.996Z,17.40
2023-05-15T16:49:33.528Z,17.30
2023-05-15T16:52:00.786Z,17.20
2023-05-15T17:06:46.256Z,17.00
2023-05-15T17:09:13.708Z,16.10
2023-05-15T17:11:41.538Z,16.00
2023-05-15T17:14:09.055Z,15.90
2023-05-15T17:16:36.380Z,15.80
2023-05-15T17:19:04.319Z,15.80
2023-05-15T17:21:31.849Z,15.60
2023-05-15T17:23:59.468Z,15.60
2023-05-15T17:26:26.981Z,15.50
2023-05-15T17:28:54.256Z,15.40
2023-05-15T17:31:21.536Z,15.20
2023-05-15T17:33:49.233Z,15.20
2023-05-15T17:36:20.234Z,15.10
2023-05-15T17:38:47.589Z,15.10
2023-05-15T17:41:14.962Z,14.80
2023-05-15T17:43:42.340Z,14.60
2023-05-15T17:46:12.247Z,14.50
2023-05-15T17:48:40.566Z,14.20
2023-05-15T17:51:07.953Z,14.00
2023-05-15T17:53:35.431Z,13.80
2023-05-15T17:56:03.694Z,13.60
2023-05-15T17:58:31.202Z,13.50
2023-05-15T18:00:59.215Z,13.30
2023-05-15T18:03:27.085Z,13.20
2023-05-15T18:05:55.119Z,13.00
2023-05-15T18:08:22.499Z,12.80
2023-05-15T18:10:49.909Z,12.60
2023-05-15T18:13:18.718Z,12.40
2023-05-15T18:15:46.153Z,12.30
2023-05-15T18:18:14.454Z,12.10
2023-05-15T18:20:41.750Z,12.00
2023-05-15T18:23:09.185Z,11.90
2023-05-15T18:25:36.934Z,11.80
2023-05-15T18:28:04.593Z,11.60
2023-05-15T18:30:31.952Z,11.50
2023-05-15T18:32:59.309Z,11.40
2023-05-15T18:35:29.579Z,11.40
2023-05-15T18:37:56.902Z,11.30
2023-05-15T18:40:26.539Z,11.20
2023-05-15T18:42:55.287Z,11.10
2023-05-15T18:45:23.760Z,11.00
2023-05-15T18:47:55.067Z,10.90
2023-05-15T18:50:26.592Z,10.80
2023-05-15T18:52:54.657Z,10.70
2023-05-15T18:55:22.652Z,10.70
2023-05-15T18:57:50.524Z,10.50
2023-05-15T19:00:26.649Z,10.50
2023-05-15T19:03:05.127Z,10.40
2023-05-15T19:05:34.413Z,10.40
2023-05-15T19:08:02.314Z,10.40
2023-05-15T19:10:30.509Z,10.40
2023-05-15T19:12:58.508Z,10.50
2023-05-15T19:15:26.591Z,10.50
2023-05-15T19:17:54.885Z,10.60
2023-05-15T19:20:22.289Z,10.60
2023-05-15T19:22:49.790Z,10.70
2023-05-15T19:25:17.284Z,10.80
2023-05-15T19:27:44.703Z,10.90
2023-05-15T19:30:12.592Z,10.90
2023-05-15T19:32:40.104Z,10.90
2023-05-15T19:35:07.822Z,11.00
2023-05-15T19:37:36.219Z,11.10
2023-05-15T19:40:04.213Z,11.10
2023-05-15T19:42:31.532Z,11.10
2023-05-15T19:44:59.237Z,11.10
2023-05-15T19:47:30.697Z,11.10
2023-05-15T19:49:58.057Z,11.10
2023-05-15T19:52:25.588Z,11.10
2023-05-15T19:54:52.879Z,11.10
2023-05-15T19:57:20.183Z,11.00
2023-05-15T19:59:48.065Z,11.00
2023-05-15T20:02:15.810Z,11.00
2023-05-15T20:04:43.517Z,11.10
2023-05-15T20:07:10.933Z,11.10
2023-05-15T20:09:39.484Z,11.00
2023-05-15T20:12:07.446Z,11.10
2023-05-15T20:14:35.176Z,11.10
2023-05-15T20:17:03.587Z,11.10
2023-05-15T20:19:33.851Z,11.00
2023-05-15T20:22:02.196Z,11.00
2023-05-15T20:24:30.179Z,11.00
2023-05-15T20:26:57.626Z,11.00
2023-05-15T20:29:27.977Z,10.90
2023-05-15T20:31:55.414Z,10.90
2023-05-15T20:34:23.323Z,10.80
2023-05-15T20:36:52.728Z,10.80
2023-05-15T20:39:20.445Z,10.80
2023-05-15T20:41:47.874Z,10.80
2023-05-15T20:44:15.096Z,10.80
2023-05-15T20:46:45.180Z,10.80
2023-05-15T20:49:12.461Z,10.80
2023-05-15T20:51:41.573Z,10.80
2023-05-15T20:54:08.741Z,10.80
2023-05-15T20:56:36.059Z,10.80
2023-05-15T20:59:03.960Z,10.80
2023-05-15T21:01:31.307Z,10.80
2023-05-15T21:03:58.623Z,10.80
2023-05-15T21:06:25.927Z,10.80
2023-05-15T21:08:53.117Z,10.80
2023-05-15T21:11:20.273Z,10.70
2023-05-15T21:13:48.118Z,10.70
2023-05-15T21:16:15.375Z,10.70
2023-05-15T21:18:42.643Z,10.70
2023-05-15T21:21:10.083Z,10.60
2023-05-15T21:23:37.380Z,10.60
2023-05-15T21:26:04.624Z,10.60
2023-05-15T21:28:32.004Z,10.60
2023-05-15T21:31:06.450Z,10.50
2023-05-15T21:33:35.557Z,10.50
2023-05-15T21:36:06.138Z,10.50
2023-05-15T21:38:57.904Z,10.40
2023-05-15T21:41:26.233Z,10.40
2023-05-15T21:43:53.381Z,10.40
2023-05-15T21:46:20.564Z,10.40
2023-05-15T21:48:48.008Z,10.40
2023-05-15T21:51:15.643Z,10.40
2023-05-15T21:53:42.910Z,10.30
2023-05-15T21:56:10.791Z,10.30
2023-05-15T21:58:37.973Z,10.30
2023-05-15T22:01:05.324Z,10.30
2023-05-15T22:03:32.554Z,10.30
2023-05-15T22:05:59.796Z,10.30
2023-05-15T22:08:27.008Z,10.30
2023-05-15T22:10:54.292Z,10.30
2023-05-15T22:13:21.507Z,10.30
2023-05-15T22:15:48.663Z,10.20
2023-05-15T22:18:16.205Z,10.20
2023-05-15T22:20:47.788Z,10.10
2023-05-15T22:23:16.390Z,10.10
2023-05-15T22:25:43.684Z,10.00
2023-05-15T22:28:10.826Z,10.10
2023-05-15T22:30:38.613Z,10.10
2023-05-15T22:33:05.861Z,10.10
2023-05-15T22:35:33.047Z,10.20
2023-05-15T22:38:00.364Z,10.20
2023-05-15T22:40:27.946Z,10.20
2023-05-15T22:42:55.309Z,10.20
2023-05-15T22:45:23.275Z,10.30
2023-05-15T22:47:51.054Z,10.30
2023-05-15T22:50:18.449Z,10.30
2023-05-15T22:52:45.717Z,10.30
2023-05-15T22:55:13.646Z,10.30
2023-05-15T22:57:43.907Z,10.30
2023-05-15T23:00:11.969Z,10.30
2023-05-15T23:02:42.530Z,10.30
2023-05-15T23:05:10.816Z,10.30
2023-05-15T23:07:37.980Z,10.40
2023-05-15T23:10:05.693Z,10.40
2023-05-15T23:12:33.214Z,10.40
2023-05-15T23:15:00.362Z,10.40
2023-05-15T23:17:27.694Z,10.40
2023-05-15T23:19:54.909Z,10.40
2023-05-15T23:22:22.315Z,10.40
2023-05-15T23:24:49.985Z,10.40
2023-05-15T23:27:17.139Z,10.50
2023-05-15T23:29:44.403Z,10.50
2023-05-15T23:32:11.543Z,10.50
2023-05-15T23:34:38.806Z,10.50
2023-05-15T23:37:06.528Z,10.50
2023-05-15T23:39:33.760Z,10.50
2023-05-15T23:42:01.010Z,10.50
2023-05-15T23:44:28.987Z,10.50
2023-05-15T23:46:56.298Z,10.50
2023-05-15T23:49:24.131Z,10.50
2023-05-15T23:51:51.369Z,10.60
2023-05-15T23:54:18.621Z,10.60
2023-05-15T23:56:45.776Z,10.60
2023-05-15T23:59:14.489Z,10.60
